createdAt,value
2022-09-29T00:02:43.921Z,12.70
2022-09-29T00:07:45.304Z,13.50
2022-09-29T00:12:47.064Z,12.15
2022-09-29T00:18:12.116Z,12.23
2022-09-29T00:23:09.953Z,12.52
2022-09-29T00:33:12.511Z,12.97
2022-09-29T00:38:13.843Z,12.55
2022-09-29T00:43:21.826Z,12.77
2022-09-29T00:48:32.503Z,13.98
2022-09-29T00:53:34.882Z,13.75
2022-09-29T00:58:42.231Z,12.05
2022-09-29T01:03:46.514Z,11.40
2022-09-29T01:08:57.836Z,12.00
2022-09-29T01:14:05.012Z,12.07
2022-09-29T01:19:11.605Z,11.80
2022-09-29T01:24:36.061Z,12.32
2022-09-29T01:30:11.890Z,13.05
2022-09-29T01:35:22.248Z,11.80
2022-09-29T01:40:34.504Z,12.25
2022-09-29T01:45:44.256Z,12.80
2022-09-29T01:50:48.912Z,12.35
2022-09-29T01:55:55.624Z,12.30
2022-09-29T02:01:03.145Z,13.27
2022-09-29T02:06:10.501Z,12.40
2022-09-29T02:11:13.669Z,12.20
2022-09-29T02:16:18.119Z,13.48
2022-09-29T02:21:19.737Z,13.30
2022-09-29T02:31:23.840Z,11.40
2022-09-29T02:36:43.086Z,11.98
2022-09-29T02:42:01.972Z,14.10
2022-09-29T02:47:06.300Z,15.70
2022-09-29T02:52:22.720Z,13.45
2022-09-29T02:57:53.721Z,13.98
2022-09-29T03:02:55.077Z,12.87
2022-09-29T03:07:56.582Z,12.20
2022-09-29T03:12:57.908Z,10.95
2022-09-29T03:17:59.354Z,11.23
2022-09-29T03:23:00.675Z,11.65
2022-09-29T03:28:02.492Z,11.57
2022-09-29T03:33:03.908Z,12.38
2022-09-29T03:38:05.235Z,12.45
2022-09-29T03:43:06.554Z,13.13
2022-09-29T03:48:07.899Z,12.65
2022-09-29T03:53:09.223Z,13.30
2022-09-29T03:58:10.537Z,11.32
2022-09-29T04:03:11.887Z,13.43
2022-09-29T04:08:13.848Z,12.02
2022-09-29T04:13:19.841Z,12.30
2022-09-29T04:18:21.638Z,11.63
2022-09-29T04:23:23.913Z,11.45
2022-09-29T04:28:25.835Z,12.00
2022-09-29T04:33:29.841Z,11.60
2022-09-29T04:38:31.559Z,11.25
2022-09-29T04:43:32.911Z,10.60
2022-09-29T04:48:36.220Z,11.38
2022-09-29T04:53:37.771Z,12.35
2022-09-29T04:58:39.230Z,12.95
2022-09-29T05:03:41.165Z,12.07
2022-09-29T05:08:42.737Z,11.48
2022-09-29T05:18:45.458Z,12.40
2022-09-29T05:23:46.769Z,10.93
2022-09-29T05:28:48.118Z,10.73
2022-09-29T05:33:49.678Z,11.65
2022-09-29T05:48:55.427Z,11.45
2022-09-29T05:53:57.027Z,11.65
2022-09-29T06:03:59.715Z,12.33
2022-09-29T06:09:01.184Z,12.25
2022-09-29T06:14:03.367Z,11.57
2022-09-29T06:19:05.330Z,12.77
2022-09-29T06:24:07.322Z,13.00
2022-09-29T06:29:08.714Z,13.02
2022-09-29T06:34:10.437Z,12.50
2022-09-29T06:39:13.988Z,13.52
2022-09-29T06:44:15.768Z,15.77
2022-09-29T06:49:18.132Z,15.18
2022-09-29T06:54:21.746Z,15.18
2022-09-29T06:59:23.098Z,14.65
2022-09-29T07:04:25.151Z,15.35
2022-09-29T07:09:26.536Z,16.08
2022-09-29T07:14:27.857Z,16.63
2022-09-29T07:19:29.229Z,15.73
2022-09-29T07:24:30.549Z,15.90
2022-09-29T07:29:33.042Z,15.57
2022-09-29T07:34:34.372Z,15.25
2022-09-29T07:39:35.699Z,13.40
2022-09-29T07:44:37.051Z,13.70
2022-09-29T07:49:38.447Z,11.52
2022-09-29T07:54:39.781Z,13.52
2022-09-29T07:59:48.460Z,13.40
2022-09-29T08:04:54.840Z,11.02
2022-09-29T08:10:10.590Z,10.85
2022-09-29T08:15:14.614Z,10.98
2022-09-29T08:20:16.001Z,10.23
2022-09-29T08:25:18.328Z,10.18
2022-09-29T08:30:19.932Z,10.65
2022-09-29T08:35:21.359Z,10.63
2022-09-29T08:40:22.889Z,9.43
2022-09-29T08:50:46.494Z,9.70
2022-09-29T08:55:48.102Z,11.38
2022-09-29T09:01:16.589Z,9.88
2022-09-29T09:11:55.898Z,10.65
2022-09-29T09:17:18.295Z,11.48
2022-09-29T09:22:24.991Z,10.63
2022-09-29T09:27:35.789Z,9.95
2022-09-29T09:32:45.115Z,11.60
2022-09-29T09:37:48.098Z,9.95
2022-09-29T09:42:58.064Z,9.32
2022-09-29T09:48:31.907Z,9.70
2022-09-29T09:53:43.340Z,9.23
2022-09-29T09:59:24.753Z,9.07
2022-09-29T10:04:26.147Z,9.40
2022-09-29T10:09:28.464Z,10.00
2022-09-29T10:14:30.645Z,8.30
2022-09-29T10:20:09.399Z,7.80
2022-09-29T10:25:19.386Z,8.40
2022-09-29T10:30:35.992Z,7.18
2022-09-29T10:35:40.871Z,9.80
2022-09-29T10:41:04.636Z,9.10
2022-09-29T10:46:37.220Z,9.75
2022-09-29T10:51:39.922Z,8.30
2022-09-29T10:56:48.412Z,6.28
2022-09-29T11:01:54.021Z,7.25
2022-09-29T11:06:55.761Z,6.20
2022-09-29T11:12:02.299Z,5.53
2022-09-29T11:17:23.232Z,5.05
2022-09-29T11:22:59.765Z,3.90
2022-09-29T11:28:26.036Z,4.90
2022-09-29T11:33:49.405Z,5.22
2022-09-29T11:39:01.800Z,4.93
2022-09-29T11:44:39.982Z,4.65
2022-09-29T11:49:56.065Z,4.60
2022-09-29T11:55:06.482Z,5.45
2022-09-29T12:00:14.377Z,3.97
2022-09-29T12:05:24.874Z,4.47
2022-09-29T12:10:52.881Z,2.87
2022-09-29T12:16:04.515Z,3.47
2022-09-29T12:21:08.937Z,3.00
2022-09-29T12:26:30.948Z,3.20
2022-09-29T12:31:38.925Z,3.60
2022-09-29T12:36:53.994Z,3.35
2022-09-29T12:42:09.954Z,3.15
2022-09-29T12:47:31.075Z,3.33
2022-09-29T12:52:45.183Z,3.17
2022-09-29T12:57:50.125Z,2.70
2022-09-29T13:03:11.223Z,2.30
2022-09-29T13:08:29.753Z,2.53
2022-09-29T13:13:51.079Z,2.55
2022-09-29T13:19:39.453Z,3.42
2022-09-29T13:24:54.493Z,2.00
2022-09-29T13:30:18.596Z,2.33
2022-09-29T13:35:23.915Z,2.47
2022-09-29T13:40:29.372Z,2.63
2022-09-29T13:45:36.665Z,2.28
2022-09-29T13:50:45.436Z,2.45
2022-09-29T13:55:55.538Z,2.42
2022-09-29T14:01:00.336Z,2.40
2022-09-29T14:06:22.354Z,2.50
2022-09-29T14:11:50.677Z,2.30
2022-09-29T14:17:02.083Z,2.50
2022-09-29T14:27:32.484Z,3.00
2022-09-29T14:32:59.182Z,2.67
2022-09-29T14:38:20.204Z,2.80
2022-09-29T14:43:24.435Z,2.75
2022-09-29T14:48:56.054Z,2.30
2022-09-29T14:54:08.751Z,2.40
2022-09-29T14:59:35.395Z,2.40
2022-09-29T15:04:40.127Z,2.20
2022-09-29T15:09:46.312Z,1.80
2022-09-29T15:14:48.973Z,1.90
2022-09-29T15:19:56.171Z,2.50
2022-09-29T15:25:17.948Z,1.70
2022-09-29T15:35:25.659Z,1.80
2022-09-29T15:40:34.376Z,2.10
2022-09-29T15:45:35.717Z,2.08
2022-09-29T15:55:43.670Z,2.17
2022-09-29T16:00:45.512Z,1.90
2022-09-29T16:06:05.907Z,1.70
2022-09-29T16:11:16.267Z,1.42
2022-09-29T16:16:24.788Z,1.63
2022-09-29T16:21:35.098Z,1.75
2022-09-29T16:26:43.666Z,2.60
2022-09-29T16:31:47.803Z,2.60
2022-09-29T16:37:19.440Z,3.22
2022-09-29T16:42:26.847Z,3.95
2022-09-29T16:47:31.110Z,4.80
2022-09-29T16:52:43.211Z,6.43
2022-09-29T16:58:04.951Z,6.10
2022-09-29T17:03:06.444Z,4.30
2022-09-29T17:08:17.712Z,4.30
2022-09-29T17:13:20.372Z,3.90
2022-09-29T17:18:23.064Z,4.75
2022-09-29T17:23:24.449Z,5.22
2022-09-29T17:33:27.067Z,3.78
2022-09-29T17:38:28.854Z,4.15
2022-09-29T17:43:31.325Z,4.15
2022-09-29T17:48:34.211Z,3.92
2022-09-29T17:53:35.946Z,6.57
2022-09-29T17:58:37.265Z,8.02
2022-09-29T18:03:40.104Z,7.75
2022-09-29T18:08:41.666Z,8.50
2022-09-29T18:13:43.086Z,7.22
2022-09-29T18:18:45.089Z,7.88
2022-09-29T18:23:47.095Z,8.73
2022-09-29T18:28:51.126Z,10.55
2022-09-29T18:33:53.453Z,8.80
2022-09-29T18:38:54.776Z,9.40
2022-09-29T18:43:58.924Z,9.50
2022-09-29T18:49:02.778Z,14.02
2022-09-29T18:54:04.372Z,16.52
2022-09-29T18:59:06.794Z,14.68
2022-09-29T19:04:09.616Z,16.65
2022-09-29T19:09:11.184Z,16.40
2022-09-29T19:14:13.639Z,15.52
2022-09-29T19:19:15.414Z,14.10
2022-09-29T19:24:17.783Z,13.05
2022-09-29T19:29:20.358Z,12.93
2022-09-29T19:34:21.931Z,12.13
2022-09-29T19:44:26.804Z,11.32
2022-09-29T19:49:28.174Z,11.90
2022-09-29T19:54:35.376Z,12.43
2022-09-29T19:59:39.134Z,12.38
2022-09-29T20:04:42.788Z,12.30
2022-09-29T20:09:44.227Z,12.35
2022-09-29T20:19:47.740Z,12.23
2022-09-29T20:24:49.074Z,12.40
2022-09-29T20:29:50.413Z,13.32
2022-09-29T20:34:51.820Z,13.65
2022-09-29T20:39:54.759Z,14.40
2022-09-29T20:44:56.305Z,14.50
2022-09-29T20:49:57.760Z,12.57
2022-09-29T20:55:02.348Z,14.73
2022-09-29T21:00:04.414Z,14.75
2022-09-29T21:05:05.995Z,14.82
2022-09-29T21:15:09.333Z,15.35
2022-09-29T21:20:10.746Z,16.27
2022-09-29T21:25:12.100Z,14.32
2022-09-29T21:30:13.512Z,15.07
2022-09-29T21:35:15.031Z,15.55
2022-09-29T21:45:17.625Z,15.03
2022-09-29T21:50:18.983Z,15.55
2022-09-29T21:55:20.352Z,15.52
2022-09-29T22:00:22.370Z,14.98
2022-09-29T22:05:23.811Z,16.70
2022-09-29T22:10:25.166Z,16.55
2022-09-29T22:15:28.301Z,17.65
2022-09-29T22:20:29.620Z,17.58
2022-09-29T22:25:33.181Z,17.48
2022-09-29T22:30:34.696Z,17.55
2022-09-29T22:35:37.235Z,17.60
2022-09-29T22:40:40.004Z,18.73
2022-09-29T22:45:45.569Z,17.63
2022-09-29T22:50:48.345Z,18.65
2022-09-29T22:55:49.764Z,18.00
2022-09-29T23:01:04.896Z,16.48
2022-09-29T23:06:06.335Z,15.85
2022-09-29T23:11:08.379Z,15.75
2022-09-29T23:16:12.745Z,15.73
2022-09-29T23:21:19.891Z,16.00
2022-09-29T23:26:22.184Z,15.35
2022-09-29T23:31:24.110Z,15.00
2022-09-29T23:36:27.543Z,14.57
2022-09-29T23:41:30.405Z,13.93
2022-09-29T23:46:35.399Z,14.68
2022-09-29T23:51:39.119Z,14.43
2022-09-29T23:56:40.543Z,13.85
